Time;durP1;ratioP1;P1;durP2;ratioP2;P2;SDS_P1;SDS_P2;PMS_P1;PMS_P2;Temp;Humidity;BMP_temperature;BMP_pressure;BME280_temperature;BME280_humidity;BME280_pressure;Samples;Min_cycle;Max_cycle;Signal;HPM_P1;HPM_P2
2022/02/01 00:01:27;;;;;;;;;109.75;80.75;;;;;;;;5099513;27;51109;-45
2022/02/01 00:04:19;;;;;;;;;105.50;76.75;;;;;;;;5085863;27;51153;-46
2022/02/01 00:07:22;;;;;;;;;106.50;78.75;;;;;;;;5101955;27;51154;-45
2022/02/01 00:10:10;;;;;;;;;98.25;76.75;;;;;;;;5092242;27;52477;-45
2022/02/01 00:13:29;;;;;;;;;114.25;81.75;;;;;;;;5081654;27;51243;-45
2022/02/01 00:19:21;;;;;;;;;108.50;78.50;;;;;;;;5100241;27;51179;-45
2022/02/01 00:34:40;;;;;;;;;95.00;73.75;;;;;;;;5081931;27;51150;-47
2022/02/01 00:37:23;;;;;;;;;97.25;76.75;;;;;;;;5095178;27;51106;-48
2022/02/01 00:40:12;;;;;;;;;97.50;77.50;;;;;;;;5082022;27;51226;-46
2022/02/01 00:42:56;;;;;;;;;94.25;73.50;;;;;;;;5090514;27;51420;-48
2022/02/01 00:45:41;;;;;;;;;103.25;77.50;;;;;;;;5100795;27;51078;-49
2022/02/01 00:48:26;;;;;;;;;103.00;77.50;;;;;;;;5086517;27;51480;-46
2022/02/01 00:51:12;;;;;;;;;97.75;77.00;;;;;;;;5084062;27;51164;-44
2022/02/01 00:53:56;;;;;;;;;139.00;109.50;;;;;;;;5096479;27;51317;-47
2022/02/01 00:56:40;;;;;;;;;127.50;107.50;;;;;;;;5094573;27;51171;-44
2022/02/01 00:59:25;;;;;;;;;113.00;100.25;;;;;;;;5081352;27;51138;-49
2022/02/01 01:02:09;;;;;;;;;130.50;105.00;;;;;;;;5093221;27;51138;-45
2022/02/01 01:04:54;;;;;;;;;145.75;114.75;;;;;;;;5080381;27;50941;-45
2022/02/01 01:07:38;;;;;;;;;141.25;119.25;;;;;;;;5100249;27;51081;-45
2022/02/01 01:10:23;;;;;;;;;169.75;133.25;;;;;;;;5097058;27;51148;-46
2022/02/01 01:13:24;;;;;;;;;159.25;129.00;;;;;;;;5080687;27;51134;-43
2022/02/01 01:38:45;;;;;;;;;180.25;147.00;;;;;;;;5081511;27;51289;-44
2022/02/01 01:43:48;;;;;;;;;155.75;135.75;;;;;;;;5093637;27;51227;-47
2022/02/01 01:52:59;;;;;;;;;173.00;141.75;;;;;;;;5095072;27;51287;-43
2022/02/01 01:55:44;;;;;;;;;155.75;137.50;;;;;;;;5087911;27;51388;-44
2022/02/01 01:58:28;;;;;;;;;189.50;149.50;;;;;;;;5087948;27;51144;-46
2022/02/01 02:01:14;;;;;;;;;180.75;150.00;;;;;;;;5079080;27;51518;-43
2022/02/01 02:03:58;;;;;;;;;185.25;142.00;;;;;;;;5080347;27;51134;-46
2022/02/01 02:06:43;;;;;;;;;173.25;143.50;;;;;;;;5086103;27;51547;-46
2022/02/01 02:09:28;;;;;;;;;168.75;135.75;;;;;;;;5091189;27;51110;-47
2022/02/01 02:12:20;;;;;;;;;184.00;147.25;;;;;;;;5080334;27;51165;-44
2022/02/01 02:15:05;;;;;;;;;166.25;145.00;;;;;;;;5095705;27;51247;-46
2022/02/01 02:17:49;;;;;;;;;177.75;145.50;;;;;;;;5079685;27;51249;-45
2022/02/01 02:21:03;;;;;;;;;180.00;150.25;;;;;;;;5074179;27;51423;-44
2022/02/01 02:23:48;;;;;;;;;172.25;141.75;;;;;;;;5063080;27;51146;-46
2022/02/01 02:26:33;;;;;;;;;162.50;140.00;;;;;;;;5079874;27;51144;-46
2022/02/01 02:29:18;;;;;;;;;190.00;151.75;;;;;;;;5083935;27;51102;-44
2022/02/01 02:32:04;;;;;;;;;188.25;151.25;;;;;;;;5079166;27;51593;-46
2022/02/01 02:34:48;;;;;;;;;179.75;142.25;;;;;;;;5085607;27;51306;-47
2022/02/01 02:37:33;;;;;;;;;165.25;145.00;;;;;;;;5089755;27;51146;-47
2022/02/01 02:40:35;;;;;;;;;181.50;142.25;;;;;;;;5071812;27;51071;-43
2022/02/01 02:46:23;;;;;;;;;173.00;138.50;;;;;;;;5089485;27;51072;-46
2022/02/01 02:49:09;;;;;;;;;170.25;138.00;;;;;;;;5073037;27;51237;-43
2022/02/01 02:51:53;;;;;;;;;178.75;141.00;;;;;;;;5081515;27;51152;-45
2022/02/01 02:54:37;;;;;;;;;139.75;130.75;;;;;;;;5085954;27;51111;-48
2022/02/01 02:57:22;;;;;;;;;165.00;135.75;;;;;;;;5095015;27;51125;-48
2022/02/01 03:00:06;;;;;;;;;155.50;133.00;;;;;;;;5083597;27;51181;-45
2022/02/01 03:02:51;;;;;;;;;164.25;129.00;;;;;;;;5078805;27;51115;-47
2022/02/01 03:05:35;;;;;;;;;164.75;129.25;;;;;;;;5078651;27;51240;-43
2022/02/01 03:08:22;;;;;;;;;161.25;138.50;;;;;;;;5083154;27;51315;-44
2022/02/01 03:11:12;;;;;;;;;164.25;132.25;;;;;;;;5093995;27;51165;-50
2022/02/01 03:13:59;;;;;;;;;147.25;117.50;;;;;;;;5098394;27;51583;-54
2022/02/01 03:17:00;;;;;;;;;154.00;129.25;;;;;;;;5098114;27;51180;-48
2022/02/01 03:19:55;;;;;;;;;160.25;129.00;;;;;;;;5076450;27;51106;-44
2022/02/01 03:22:40;;;;;;;;;155.50;138.25;;;;;;;;5085141;27;51128;-46
2022/02/01 03:25:24;;;;;;;;;162.75;128.00;;;;;;;;5071719;27;51161;-48
2022/02/01 03:28:09;;;;;;;;;162.00;132.75;;;;;;;;5098127;27;51083;-48
2022/02/01 03:30:53;;;;;;;;;155.25;127.25;;;;;;;;5086859;27;51172;-46
2022/02/01 03:33:38;;;;;;;;;155.00;127.00;;;;;;;;5098052;27;51106;-47
2022/02/01 03:36:22;;;;;;;;;154.75;129.75;;;;;;;;5096011;27;51098;-46
2022/02/01 03:39:07;;;;;;;;;166.25;136.00;;;;;;;;5072251;27;51083;-49
2022/02/01 03:41:51;;;;;;;;;150.50;124.25;;;;;;;;5080681;27;51297;-48
2022/02/01 03:44:36;;;;;;;;;140.25;123.00;;;;;;;;5083624;27;52113;-44
2022/02/01 03:47:20;;;;;;;;;149.50;127.25;;;;;;;;5084746;27;51280;-43
2022/02/01 03:50:08;;;;;;;;;150.50;124.00;;;;;;;;5088358;27;51231;-45
2022/02/01 03:52:53;;;;;;;;;160.50;132.25;;;;;;;;5099231;27;51474;-43
2022/02/01 03:55:37;;;;;;;;;166.75;134.00;;;;;;;;5093094;27;51118;-44
2022/02/01 03:58:21;;;;;;;;;144.50;118.25;;;;;;;;5090153;27;50968;-43
2022/02/01 04:01:06;;;;;;;;;156.25;128.00;;;;;;;;5089633;27;51058;-42
2022/02/01 04:03:50;;;;;;;;;156.50;130.00;;;;;;;;5098261;27;51137;-43
2022/02/01 04:06:34;;;;;;;;;158.75;129.00;;;;;;;;5082111;27;51190;-44
2022/02/01 04:09:20;;;;;;;;;116.00;85.75;;;;;;;;5094675;27;51124;-43
2022/02/01 04:12:06;;;;;;;;;162.00;131.50;;;;;;;;5091464;27;51217;-42
2022/02/01 04:14:53;;;;;;;;;167.25;134.25;;;;;;;;5082073;27;51338;-42
2022/02/01 04:17:39;;;;;;;;;169.00;133.75;;;;;;;;5094699;27;51133;-44
2022/02/01 04:20:23;;;;;;;;;170.25;133.50;;;;;;;;5081187;27;51134;-43
2022/02/01 04:23:07;;;;;;;;;148.25;124.25;;;;;;;;5081790;27;51056;-43
2022/02/01 04:25:52;;;;;;;;;159.50;130.75;;;;;;;;5085168;27;51138;-43
2022/02/01 04:28:36;;;;;;;;;163.00;129.00;;;;;;;;5088683;27;51084;-43
2022/02/01 04:31:20;;;;;;;;;174.50;127.00;;;;;;;;5081027;27;51187;-43
2022/02/01 04:34:05;;;;;;;;;157.50;126.50;;;;;;;;5070201;27;51234;-43
2022/02/01 04:36:51;;;;;;;;;154.75;132.25;;;;;;;;5085829;27;51204;-43
2022/02/01 04:39:35;;;;;;;;;150.50;121.25;;;;;;;;5085115;27;51249;-43
2022/02/01 04:42:19;;;;;;;;;157.75;134.00;;;;;;;;5089301;27;51103;-43
2022/02/01 04:45:04;;;;;;;;;160.75;126.75;;;;;;;;5087708;27;51166;-42
2022/02/01 04:47:50;;;;;;;;;152.50;119.75;;;;;;;;5095172;27;51121;-43
2022/02/01 04:50:34;;;;;;;;;139.00;116.75;;;;;;;;5091958;27;51111;-43
2022/02/01 04:53:18;;;;;;;;;150.50;128.50;;;;;;;;5081240;27;51169;-43
2022/02/01 04:56:02;;;;;;;;;158.50;128.75;;;;;;;;5081711;27;51217;-44
2022/02/01 04:58:48;;;;;;;;;168.00;132.75;;;;;;;;5088105;27;51115;-44
2022/02/01 05:01:37;;;;;;;;;165.75;133.00;;;;;;;;5092284;27;51984;-43
2022/02/01 05:04:21;;;;;;;;;173.25;143.25;;;;;;;;5085822;27;51124;-44
2022/02/01 05:07:06;;;;;;;;;176.25;144.50;;;;;;;;5081309;27;51235;-44
2022/02/01 05:09:51;;;;;;;;;169.25;140.75;;;;;;;;5094870;27;51101;-42
2022/02/01 05:12:37;;;;;;;;;174.25;146.75;;;;;;;;5099127;27;51127;-43
2022/02/01 05:15:22;;;;;;;;;167.00;144.50;;;;;;;;5100387;27;51266;-43
2022/02/01 05:18:13;;;;;;;;;167.00;130.50;;;;;;;;5082394;27;50996;-43
2022/02/01 05:21:06;;;;;;;;;171.00;136.00;;;;;;;;5092364;27;51116;-43
2022/02/01 05:23:52;;;;;;;;;173.75;138.50;;;;;;;;5099052;27;51086;-43
2022/02/01 05:26:36;;;;;;;;;156.75;127.50;;;;;;;;5083082;27;51564;-43
2022/02/01 05:29:20;;;;;;;;;160.25;131.00;;;;;;;;5080647;27;51426;-43
2022/02/01 05:32:17;;;;;;;;;176.25;133.25;;;;;;;;5083552;27;51079;-43
2022/02/01 05:35:01;;;;;;;;;152.25;131.50;;;;;;;;5086980;27;51154;-45
2022/02/01 05:37:45;;;;;;;;;149.75;122.00;;;;;;;;5092333;27;51144;-43
2022/02/01 05:40:30;;;;;;;;;172.00;135.25;;;;;;;;5089189;27;51238;-43
2022/02/01 05:43:32;;;;;;;;;169.25;135.50;;;;;;;;5070089;27;51314;-43
2022/02/01 05:46:17;;;;;;;;;166.00;133.00;;;;;;;;5085962;27;51034;-43
2022/02/01 05:49:01;;;;;;;;;162.75;129.75;;;;;;;;5091340;27;51189;-42
2022/02/01 05:51:50;;;;;;;;;166.50;132.75;;;;;;;;5096287;27;51431;-45
2022/02/01 05:54:35;;;;;;;;;158.00;136.00;;;;;;;;5081938;27;51098;-45
2022/02/01 05:57:19;;;;;;;;;166.75;134.50;;;;;;;;5094578;27;51045;-44
2022/02/01 06:00:07;;;;;;;;;153.75;131.00;;;;;;;;5086893;27;51252;-42
2022/02/01 06:02:51;;;;;;;;;179.25;145.75;;;;;;;;5085961;27;52424;-43
2022/02/01 06:05:35;;;;;;;;;171.00;143.00;;;;;;;;5096856;27;51362;-42
2022/02/01 06:08:20;;;;;;;;;173.75;142.00;;;;;;;;5079104;27;51091;-43
2022/02/01 06:11:04;;;;;;;;;145.25;124.25;;;;;;;;5085128;27;51169;-44
2022/02/01 06:13:49;;;;;;;;;180.00;143.00;;;;;;;;5079556;27;51109;-43
2022/02/01 06:16:33;;;;;;;;;167.50;139.00;;;;;;;;5086586;27;51422;-44
2022/02/01 06:19:17;;;;;;;;;176.50;138.00;;;;;;;;5079586;27;51145;-43
2022/02/01 06:22:03;;;;;;;;;171.25;142.50;;;;;;;;5089613;27;51107;-43
2022/02/01 06:24:47;;;;;;;;;174.75;148.25;;;;;;;;5081254;27;51134;-43
2022/02/01 06:27:32;;;;;;;;;166.00;131.00;;;;;;;;5086958;27;51500;-43
2022/02/01 06:30:17;;;;;;;;;177.25;136.50;;;;;;;;5087188;27;51533;-45
2022/02/01 06:33:01;;;;;;;;;166.50;139.75;;;;;;;;5068624;27;51104;-42
2022/02/01 06:35:46;;;;;;;;;166.50;132.00;;;;;;;;5098615;27;51071;-43
2022/02/01 06:38:30;;;;;;;;;167.25;139.25;;;;;;;;5098689;27;51173;-46
2022/02/01 06:41:14;;;;;;;;;164.25;130.50;;;;;;;;5085962;27;51176;-43
2022/02/01 06:43:59;;;;;;;;;178.25;139.75;;;;;;;;5089476;27;51183;-42
2022/02/01 06:46:43;;;;;;;;;164.75;139.00;;;;;;;;5084179;27;51306;-51
2022/02/01 06:49:28;;;;;;;;;158.50;132.25;;;;;;;;5098479;27;51557;-51
2022/02/01 06:52:12;;;;;;;;;172.00;136.50;;;;;;;;5082821;27;51072;-52
2022/02/01 06:55:01;;;;;;;;;177.75;142.25;;;;;;;;5098866;27;51529;-50
2022/02/01 06:57:45;;;;;;;;;175.75;140.25;;;;;;;;5082419;27;51491;-51
2022/02/01 07:00:30;;;;;;;;;182.25;151.25;;;;;;;;5090734;27;51450;-52
2022/02/01 07:03:15;;;;;;;;;178.50;142.75;;;;;;;;5082812;27;51275;-53
2022/02/01 07:05:59;;;;;;;;;186.75;151.25;;;;;;;;5078181;27;51513;-54
2022/02/01 07:08:45;;;;;;;;;193.00;153.00;;;;;;;;5087619;27;51164;-55
2022/02/01 07:11:30;;;;;;;;;193.50;152.50;;;;;;;;5097340;27;51551;-53
2022/02/01 07:14:14;;;;;;;;;189.25;155.75;;;;;;;;5080740;27;51087;-54
2022/02/01 07:16:58;;;;;;;;;210.25;162.75;;;;;;;;5094532;27;51140;-54
2022/02/01 07:19:43;;;;;;;;;211.00;166.00;;;;;;;;5085394;27;51483;-50
2022/02/01 07:22:29;;;;;;;;;193.75;165.00;;;;;;;;5084614;27;51144;-51
2022/02/01 07:25:25;;;;;;;;;185.75;161.00;;;;;;;;5087550;27;51114;-51
2022/02/01 07:28:09;;;;;;;;;195.25;157.75;;;;;;;;5087535;27;51178;-51
2022/02/01 07:30:54;;;;;;;;;199.25;164.50;;;;;;;;5096388;27;51363;-52
2022/02/01 07:33:38;;;;;;;;;189.25;150.00;;;;;;;;5092185;27;51012;-51
2022/02/01 07:36:23;;;;;;;;;191.25;160.25;;;;;;;;5089584;27;51235;-53
2022/02/01 07:39:07;;;;;;;;;168.00;143.75;;;;;;;;5098286;27;51249;-52
2022/02/01 07:41:51;;;;;;;;;193.00;156.75;;;;;;;;5086944;27;51042;-52
2022/02/01 07:44:36;;;;;;;;;191.00;161.75;;;;;;;;5088388;27;51144;-52
2022/02/01 07:47:22;;;;;;;;;188.50;151.00;;;;;;;;5081855;27;51130;-52
2022/02/01 07:50:07;;;;;;;;;190.50;156.25;;;;;;;;5062755;27;51164;-48
2022/02/01 07:52:51;;;;;;;;;191.75;156.50;;;;;;;;5083701;27;51157;-53
2022/02/01 07:55:36;;;;;;;;;185.50;154.00;;;;;;;;5095270;27;51942;-51
2022/02/01 07:58:20;;;;;;;;;185.50;153.75;;;;;;;;5089502;27;51189;-51
2022/02/01 08:01:04;;;;;;;;;174.25;149.00;;;;;;;;5089644;27;51035;-53
2022/02/01 08:03:48;;;;;;;;;189.25;154.75;;;;;;;;5101453;27;51182;-55
2022/02/01 08:06:33;;;;;;;;;247.75;199.75;;;;;;;;5090639;27;51111;-50
2022/02/01 08:09:25;;;;;;;;;264.25;222.75;;;;;;;;5089808;27;51433;-53
2022/02/01 08:12:19;;;;;;;;;292.25;233.75;;;;;;;;5090962;27;51143;-53
2022/02/01 08:15:56;;;;;;;;;288.00;231.50;;;;;;;;5058596;27;51126;-53
2022/02/01 08:21:09;;;;;;;;;194.25;174.50;;;;;;;;5084613;27;51121;-50
2022/02/01 08:23:54;;;;;;;;;187.25;155.75;;;;;;;;5086092;27;50990;-52
2022/02/01 08:26:38;;;;;;;;;204.25;174.75;;;;;;;;5098150;27;51031;-55
2022/02/01 08:29:22;;;;;;;;;205.50;168.50;;;;;;;;5100249;27;51134;-54
2022/02/01 08:32:07;;;;;;;;;190.00;163.75;;;;;;;;5092950;27;51224;-53
2022/02/01 08:34:51;;;;;;;;;180.25;143.25;;;;;;;;5097381;27;51542;-55
2022/02/01 08:37:36;;;;;;;;;185.50;159.50;;;;;;;;5087905;27;51048;-56
2022/02/01 08:40:20;;;;;;;;;182.25;147.00;;;;;;;;5092498;27;51099;-50
2022/02/01 08:43:05;;;;;;;;;180.50;156.75;;;;;;;;5082613;27;51224;-55
2022/02/01 08:45:50;;;;;;;;;195.75;161.00;;;;;;;;5098623;27;51049;-52
2022/02/01 08:48:34;;;;;;;;;186.75;160.00;;;;;;;;5101371;27;51166;-51
2022/02/01 08:51:20;;;;;;;;;201.00;162.25;;;;;;;;5099023;27;51114;-55
2022/02/01 08:54:11;;;;;;;;;189.00;151.25;;;;;;;;5092384;27;51097;-51
2022/02/01 09:00:11;;;;;;;;;183.00;156.25;;;;;;;;5088153;27;51986;-53
2022/02/01 09:02:56;;;;;;;;;179.50;152.75;;;;;;;;5088497;27;51089;-52
2022/02/01 09:05:42;;;;;;;;;178.50;154.75;;;;;;;;5081856;27;51172;-53
2022/02/01 09:08:27;;;;;;;;;196.25;162.00;;;;;;;;5097982;27;51104;-52
2022/02/01 09:11:14;;;;;;;;;192.75;160.00;;;;;;;;5100976;27;51605;-50
2022/02/01 09:13:59;;;;;;;;;207.00;159.25;;;;;;;;5089333;27;51554;-51
2022/02/01 09:16:43;;;;;;;;;183.75;167.00;;;;;;;;5081302;27;51208;-49
2022/02/01 09:19:28;;;;;;;;;195.25;157.50;;;;;;;;5048428;27;51370;-54
2022/02/01 09:22:13;;;;;;;;;172.75;146.50;;;;;;;;5086656;27;51224;-55
2022/02/01 09:24:58;;;;;;;;;181.25;153.75;;;;;;;;5088307;27;51154;-53
2022/02/01 09:27:42;;;;;;;;;181.75;148.00;;;;;;;;5090650;27;51237;-53
2022/02/01 09:30:27;;;;;;;;;188.00;157.00;;;;;;;;5090620;27;51161;-56
2022/02/01 09:33:11;;;;;;;;;184.50;149.50;;;;;;;;5085054;27;51165;-50
2022/02/01 09:35:55;;;;;;;;;177.75;147.50;;;;;;;;5087178;27;51499;-54
2022/02/01 09:38:40;;;;;;;;;171.75;146.75;;;;;;;;5091523;27;51247;-52
2022/02/01 09:41:24;;;;;;;;;173.75;146.75;;;;;;;;5093276;27;51173;-52
2022/02/01 09:44:09;;;;;;;;;151.75;128.00;;;;;;;;5089689;27;51291;-54
2022/02/01 09:46:54;;;;;;;;;148.00;123.75;;;;;;;;5091063;27;51106;-53
2022/02/01 09:49:38;;;;;;;;;130.75;114.00;;;;;;;;5085204;27;51991;-52
2022/02/01 09:52:23;;;;;;;;;127.75;120.50;;;;;;;;5084731;27;51151;-53
2022/02/01 09:55:09;;;;;;;;;148.00;119.25;;;;;;;;5087119;27;51193;-53
2022/02/01 09:57:54;;;;;;;;;134.25;106.75;;;;;;;;5088173;27;51037;-52
2022/02/01 10:00:51;;;;;;;;;140.00;119.50;;;;;;;;5093011;27;51892;-57
2022/02/01 10:03:35;;;;;;;;;142.25;122.00;;;;;;;;5082451;27;51198;-53
2022/02/01 10:06:20;;;;;;;;;137.00;114.75;;;;;;;;5098365;27;51077;-57
2022/02/01 10:09:15;;;;;;;;;135.50;117.25;;;;;;;;5093715;27;51102;-56
2022/02/01 10:11:59;;;;;;;;;140.25;118.25;;;;;;;;5094697;27;51084;-51
2022/02/01 10:14:52;;;;;;;;;131.75;112.25;;;;;;;;5095972;27;51103;-56
2022/02/01 10:17:49;;;;;;;;;127.75;105.50;;;;;;;;5091602;27;51092;-51
2022/02/01 10:20:35;;;;;;;;;122.25;102.25;;;;;;;;5090156;27;51203;-52
2022/02/01 10:23:20;;;;;;;;;120.25;99.50;;;;;;;;5089827;27;51213;-53
2022/02/01 10:26:06;;;;;;;;;109.00;90.50;;;;;;;;5089800;27;51162;-54
2022/02/01 10:29:05;;;;;;;;;110.75;87.25;;;;;;;;5094267;27;51214;-52
2022/02/01 10:31:54;;;;;;;;;94.75;74.75;;;;;;;;5084205;27;51470;-54
2022/02/01 10:37:25;;;;;;;;;100.25;78.00;;;;;;;;5088468;27;50968;-52
2022/02/01 10:40:09;;;;;;;;;94.50;80.25;;;;;;;;5093597;27;51640;-55
2022/02/01 10:43:02;;;;;;;;;80.75;64.50;;;;;;;;5089132;27;51128;-55
2022/02/01 10:45:47;;;;;;;;;87.75;69.50;;;;;;;;5086804;27;51603;-53
2022/02/01 10:48:32;;;;;;;;;84.25;74.75;;;;;;;;5088175;27;51134;-51
2022/02/01 10:51:17;;;;;;;;;74.25;65.25;;;;;;;;5093997;27;51054;-53
2022/02/01 10:54:02;;;;;;;;;83.00;69.75;;;;;;;;5095342;27;51168;-53
2022/02/01 10:56:46;;;;;;;;;81.00;66.25;;;;;;;;5089231;27;51571;-54
2022/02/01 10:59:31;;;;;;;;;77.25;66.00;;;;;;;;5090581;27;51198;-53
2022/02/01 11:02:15;;;;;;;;;80.50;70.50;;;;;;;;5091694;27;51205;-52
2022/02/01 11:04:59;;;;;;;;;88.25;71.75;;;;;;;;5077587;27;52053;-52
2022/02/01 11:07:48;;;;;;;;;81.50;70.25;;;;;;;;5075220;27;51667;-52
2022/02/01 11:10:33;;;;;;;;;80.75;65.25;;;;;;;;5082026;27;51233;-52
2022/02/01 11:13:17;;;;;;;;;93.25;71.25;;;;;;;;5082056;27;51161;-52
2022/02/01 11:16:03;;;;;;;;;87.50;80.00;;;;;;;;5089038;27;51417;-54
2022/02/01 11:18:51;;;;;;;;;90.00;71.00;;;;;;;;5092532;27;51420;-55
2022/02/01 11:21:43;;;;;;;;;97.00;83.00;;;;;;;;5093061;27;51188;-53
2022/02/01 11:24:34;;;;;;;;;102.00;81.50;;;;;;;;5088460;27;51321;-54
2022/02/01 11:27:31;;;;;;;;;95.25;81.25;;;;;;;;5095890;27;51139;-52
2022/02/01 11:30:15;;;;;;;;;93.25;78.50;;;;;;;;5091314;27;51365;-51
2022/02/01 11:33:00;;;;;;;;;90.25;71.25;;;;;;;;5084500;27;51273;-49
2022/02/01 11:35:45;;;;;;;;;102.00;80.75;;;;;;;;5084163;27;51221;-50
2022/02/01 11:38:29;;;;;;;;;90.00;78.50;;;;;;;;5089735;27;51541;-54
2022/02/01 11:41:13;;;;;;;;;96.50;74.75;;;;;;;;5089385;27;51200;-49
2022/02/01 11:44:12;;;;;;;;;93.75;79.00;;;;;;;;5087571;27;51225;-50
2022/02/01 11:47:09;;;;;;;;;89.00;75.25;;;;;;;;5069135;27;51140;-52
2022/02/01 11:49:53;;;;;;;;;95.25;81.50;;;;;;;;5088237;27;51120;-53
2022/02/01 11:52:48;;;;;;;;;79.75;73.50;;;;;;;;5092514;27;51126;-53
2022/02/01 11:55:32;;;;;;;;;82.25;69.75;;;;;;;;5091698;27;51092;-50
2022/02/01 11:58:46;;;;;;;;;97.50;82.25;;;;;;;;5086713;27;51263;-49
2022/02/01 12:01:35;;;;;;;;;98.75;82.75;;;;;;;;5079806;27;51253;-51
2022/02/01 12:04:19;;;;;;;;;97.75;83.00;;;;;;;;5101372;27;51486;-49
2022/02/01 12:07:08;;;;;;;;;96.50;82.50;;;;;;;;5100483;27;51621;-51
2022/02/01 12:09:52;;;;;;;;;97.75;75.00;;;;;;;;5086719;27;51256;-53
2022/02/01 12:12:37;;;;;;;;;109.50;82.25;;;;;;;;5080207;27;51398;-51
2022/02/01 12:15:24;;;;;;;;;97.25;84.00;;;;;;;;5080712;27;51271;-51
2022/02/01 12:18:27;;;;;;;;;106.00;89.75;;;;;;;;5098908;27;51066;-56
2022/02/01 12:21:30;;;;;;;;;92.00;85.00;;;;;;;;5081116;27;51226;-51
2022/02/01 12:24:14;;;;;;;;;99.25;85.00;;;;;;;;5099641;27;51066;-50
2022/02/01 12:26:59;;;;;;;;;85.50;70.75;;;;;;;;5084472;27;51137;-49
2022/02/01 12:29:43;;;;;;;;;80.25;67.75;;;;;;;;5083350;27;50989;-52
2022/02/01 12:32:28;;;;;;;;;74.75;60.50;;;;;;;;5099382;27;51135;-49
2022/02/01 12:35:12;;;;;;;;;82.25;68.25;;;;;;;;5080145;27;52910;-49
2022/02/01 12:38:10;;;;;;;;;83.50;67.00;;;;;;;;5091877;27;51530;-52
2022/02/01 12:41:11;;;;;;;;;84.00;69.00;;;;;;;;5088915;27;51222;-51
2022/02/01 12:49:34;;;;;;;;;87.75;72.00;;;;;;;;5090505;27;51565;-50
2022/02/01 12:52:25;;;;;;;;;79.75;66.50;;;;;;;;5085522;27;51158;-51
2022/02/01 12:55:11;;;;;;;;;82.75;68.00;;;;;;;;5084566;27;51171;-51
2022/02/01 12:58:03;;;;;;;;;74.75;59.25;;;;;;;;5092153;27;51483;-48
2022/02/01 13:00:51;;;;;;;;;79.25;65.25;;;;;;;;5089867;27;51073;-52
2022/02/01 13:03:44;;;;;;;;;76.75;67.00;;;;;;;;5083916;27;51208;-54
2022/02/01 13:06:30;;;;;;;;;86.25;71.75;;;;;;;;5088761;27;51178;-52
2022/02/01 13:15:35;;;;;;;;;95.75;74.25;;;;;;;;5088290;27;51532;-51
2022/02/01 13:18:25;;;;;;;;;82.00;71.00;;;;;;;;5089909;27;51172;-53
2022/02/01 13:21:14;;;;;;;;;79.50;63.75;;;;;;;;5090143;27;51029;-50
2022/02/01 13:23:59;;;;;;;;;83.00;68.50;;;;;;;;5088785;27;51909;-50
2022/02/01 13:26:45;;;;;;;;;88.00;73.75;;;;;;;;5083970;27;51231;-51
2022/02/01 13:29:29;;;;;;;;;82.25;73.00;;;;;;;;5088229;27;51470;-48
2022/02/01 13:32:14;;;;;;;;;90.25;72.75;;;;;;;;5084606;27;51547;-51
2022/02/01 13:35:04;;;;;;;;;83.75;70.50;;;;;;;;5086722;27;51140;-51
2022/02/01 13:37:49;;;;;;;;;87.25;72.75;;;;;;;;5076007;27;51074;-51
2022/02/01 13:40:34;;;;;;;;;83.75;73.75;;;;;;;;5079024;27;52659;-50
2022/02/01 13:43:23;;;;;;;;;80.75;61.50;;;;;;;;5065639;27;51227;-50
2022/02/01 13:46:16;;;;;;;;;85.25;67.00;;;;;;;;5056528;27;51181;-49
2022/02/01 13:49:04;;;;;;;;;86.50;70.00;;;;;;;;5096655;27;51443;-52
2022/02/01 13:51:51;;;;;;;;;88.50;74.00;;;;;;;;5094669;27;51228;-52
2022/02/01 13:54:39;;;;;;;;;88.25;72.75;;;;;;;;5060790;27;51458;-52
2022/02/01 13:57:25;;;;;;;;;92.75;74.00;;;;;;;;5093943;27;51135;-50
2022/02/01 14:00:12;;;;;;;;;81.75;73.25;;;;;;;;5087484;27;51514;-49
2022/02/01 14:03:26;;;;;;;;;86.75;72.75;;;;;;;;5062683;27;51137;-49
2022/02/01 14:06:38;;;;;;;;;85.25;69.75;;;;;;;;5074215;27;51235;-48
2022/02/01 14:36:11;;;;;;;;;98.25;74.25;;;;;;;;5091670;27;51202;-45
2022/02/01 14:42:52;;;;;;;;;34.75;15.50;;;;;;;;5099430;27;51203;-46
2022/02/01 14:45:04;;;;;;;;;95.75;76.75;;;;;;;;5082471;27;51184;-44
2022/02/01 14:47:48;;;;;;;;;90.75;77.25;;;;;;;;5092425;27;52201;-45
2022/02/01 14:50:33;;;;;;;;;97.75;84.50;;;;;;;;5100188;27;51185;-47
2022/02/01 14:53:17;;;;;;;;;106.25;83.00;;;;;;;;5083670;27;51442;-46
2022/02/01 14:56:12;;;;;;;;;97.75;80.25;;;;;;;;5094457;27;51094;-43
2022/02/01 15:06:07;;;;;;;;;103.50;86.00;;;;;;;;5098992;27;51160;-45
2022/02/01 15:14:00;;;;;;;;;102.50;79.00;;;;;;;;5097593;27;51382;-47
2022/02/01 15:16:46;;;;;;;;;109.75;84.00;;;;;;;;5083185;27;51090;-50
2022/02/01 15:19:30;;;;;;;;;106.00;93.00;;;;;;;;5094159;27;51145;-49
2022/02/01 15:22:15;;;;;;;;;97.25;77.75;;;;;;;;5089053;27;51196;-46
2022/02/01 15:24:59;;;;;;;;;109.00;86.75;;;;;;;;5094914;27;51264;-49
2022/02/01 15:27:44;;;;;;;;;107.00;84.50;;;;;;;;5087358;27;50987;-50
2022/02/01 15:30:28;;;;;;;;;82.00;61.00;;;;;;;;5093893;27;51078;-51
2022/02/01 15:33:14;;;;;;;;;101.75;83.25;;;;;;;;5086371;27;51480;-49
2022/02/01 15:36:02;;;;;;;;;92.00;81.75;;;;;;;;5098892;27;51391;-51
2022/02/01 15:45:56;;;;;;;;;81.50;74.25;;;;;;;;5099494;27;51373;-54
2022/02/01 15:57:47;;;;;;;;;80.00;68.00;;;;;;;;5011183;28;51189;-49
2022/02/01 16:00:34;;;;;;;;;76.75;61.75;;;;;;;;5017850;28;51255;-48
2022/02/01 16:03:25;;;;;;;;;80.75;61.50;;;;;;;;5098867;27;51112;-47
2022/02/01 16:06:09;;;;;;;;;89.25;73.75;;;;;;;;5086609;27;51508;-48
2022/02/01 16:09:04;;;;;;;;;76.50;57.75;;;;;;;;5084552;27;52076;-46
2022/02/01 16:11:48;;;;;;;;;75.00;66.00;;;;;;;;5086866;27;52820;-50
2022/02/01 16:14:33;;;;;;;;;75.00;64.75;;;;;;;;5087730;27;51127;-46
2022/02/01 16:17:17;;;;;;;;;76.75;65.00;;;;;;;;5084627;27;51143;-50
2022/02/01 16:20:01;;;;;;;;;91.75;71.25;;;;;;;;5087000;27;52148;-50
2022/02/01 16:22:45;;;;;;;;;84.75;67.50;;;;;;;;5083079;27;51102;-52
2022/02/01 16:25:30;;;;;;;;;84.25;64.00;;;;;;;;5080675;27;51543;-49
2022/02/01 16:28:14;;;;;;;;;82.50;65.75;;;;;;;;5076898;27;51189;-49
2022/02/01 16:30:59;;;;;;;;;81.25;60.50;;;;;;;;5089232;27;51908;-49
2022/02/01 16:33:43;;;;;;;;;79.75;64.00;;;;;;;;5081257;27;51151;-47
2022/02/01 16:36:29;;;;;;;;;81.00;66.00;;;;;;;;5080678;27;51213;-45
2022/02/01 16:39:14;;;;;;;;;77.50;60.75;;;;;;;;5100192;27;51152;-46
2022/02/01 16:42:01;;;;;;;;;86.50;65.50;;;;;;;;5096044;27;51202;-46
2022/02/01 16:44:46;;;;;;;;;78.00;67.25;;;;;;;;5087109;27;51178;-46
2022/02/01 16:47:30;;;;;;;;;83.25;64.25;;;;;;;;5068445;27;51534;-48
2022/02/01 16:50:22;;;;;;;;;85.25;70.00;;;;;;;;5081246;27;51094;-45
2022/02/01 16:53:15;;;;;;;;;88.25;69.50;;;;;;;;5083472;27;51153;-50
2022/02/01 16:56:11;;;;;;;;;89.50;70.00;;;;;;;;5088410;27;51245;-50
2022/02/01 16:58:58;;;;;;;;;75.00;56.25;;;;;;;;5083710;27;51392;-49
2022/02/01 17:01:43;;;;;;;;;76.00;62.00;;;;;;;;5074059;27;51418;-49
2022/02/01 17:04:27;;;;;;;;;109.25;89.75;;;;;;;;5087204;27;51201;-48
2022/02/01 17:07:12;;;;;;;;;114.25;93.00;;;;;;;;5094981;27;51521;-53
2022/02/01 17:09:58;;;;;;;;;92.00;71.50;;;;;;;;5070358;27;51177;-49
2022/02/01 17:12:44;;;;;;;;;109.75;91.00;;;;;;;;5092823;27;50932;-48
2022/02/01 17:24:22;;;;;;;;;80.00;64.00;;;;;;;;5092121;27;51588;-48
2022/02/01 17:27:07;;;;;;;;;84.50;70.25;;;;;;;;5084618;27;51233;-48
2022/02/01 17:29:51;;;;;;;;;82.50;69.75;;;;;;;;5083641;27;51206;-49
2022/02/01 17:32:36;;;;;;;;;93.75;67.25;;;;;;;;5096229;27;51187;-48
2022/02/01 17:35:20;;;;;;;;;82.50;62.75;;;;;;;;5100247;27;51172;-49
2022/02/01 17:38:05;;;;;;;;;79.75;66.25;;;;;;;;5068479;27;51054;-49
2022/02/01 17:40:49;;;;;;;;;77.00;63.50;;;;;;;;5088830;27;51200;-50
2022/02/01 17:43:34;;;;;;;;;80.00;62.50;;;;;;;;5082378;27;51072;-46
2022/02/01 17:46:19;;;;;;;;;88.00;68.75;;;;;;;;5079682;27;51131;-49
2022/02/01 17:49:03;;;;;;;;;83.00;67.75;;;;;;;;5079828;27;51065;-50
2022/02/01 17:54:42;;;;;;;;;84.75;66.25;;;;;;;;5095428;27;51098;-48
2022/02/01 17:57:26;;;;;;;;;87.25;71.50;;;;;;;;5084057;27;51075;-49
2022/02/01 18:00:10;;;;;;;;;88.50;69.75;;;;;;;;5083388;27;51102;-50
2022/02/01 18:02:55;;;;;;;;;87.75;66.00;;;;;;;;5084622;27;51083;-50
2022/02/01 18:05:41;;;;;;;;;79.25;59.75;;;;;;;;5098222;27;51401;-52
2022/02/01 18:08:26;;;;;;;;;96.50;71.25;;;;;;;;5080959;27;51044;-48
2022/02/01 18:11:12;;;;;;;;;87.00;66.25;;;;;;;;5082503;27;51121;-48
2022/02/01 18:14:19;;;;;;;;;85.75;61.25;;;;;;;;5087938;27;51920;-47